Time;durP1;ratioP1;P1;durP2;ratioP2;P2;SDS_P1;SDS_P2;PMS_P1;PMS_P2;Temp;Humidity;BMP_temperature;BMP_pressure;BME280_temperature;BME280_humidity;BME280_pressure;Samples;Min_cycle;Max_cycle;Signal;HPM_P1;HPM_P2
2022/02/05 00:00:05;;;;;;;13.03;2.80;;;;;;;;;;5118462;28;20513;-72
2022/02/05 00:02:26;;;;;;;9.57;3.60;;;;;;;;;;5116652;28;20470;-72
2022/02/05 00:04:57;;;;;;;8.03;3.57;;;;;;;;;;5097903;28;20851;-72
2022/02/05 00:07:27;;;;;;;9.93;3.43;;;;;;;;;;5098020;28;20448;-71
2022/02/05 00:10:17;;;;;;;4.33;2.70;;;;;;;;;;5098478;28;20743;-71
2022/02/05 00:12:58;;;;;;;5.47;2.43;;;;;;;;;;5098009;28;20959;-71
2022/02/05 00:15:36;;;;;;;8.27;2.53;;;;;;;;;;5098131;28;20904;-71
2022/02/05 00:40:18;;;;;;;5.80;3.13;;;;;;;;;;5097020;28;20471;-72
2022/02/05 00:42:54;;;;;;;3.23;2.57;;;;;;;;;;5098093;28;20447;-72
2022/02/05 00:45:27;;;;;;;5.67;2.60;;;;;;;;;;5097879;28;20470;-72
2022/02/05 00:48:00;;;;;;;3.13;2.17;;;;;;;;;;5097382;28;20460;-72
2022/02/05 00:50:41;;;;;;;5.37;3.83;;;;;;;;;;5118036;27;20459;-72
2022/02/05 00:53:26;;;;;;;4.07;2.07;;;;;;;;;;5097301;28;20456;-71
2022/02/05 00:56:01;;;;;;;6.60;2.13;;;;;;;;;;5097607;28;20899;-71
2022/02/05 00:58:29;;;;;;;6.10;2.50;;;;;;;;;;5097490;28;20462;-71
2022/02/05 01:00:57;;;;;;;4.30;1.40;;;;;;;;;;5112756;27;20547;-71
2022/02/05 01:06:25;;;;;;;4.80;2.73;;;;;;;;;;5113193;28;20446;-71
2022/02/05 01:08:58;;;;;;;9.20;3.40;;;;;;;;;;5103064;27;20730;-71
2022/02/05 01:11:37;;;;;;;7.33;2.70;;;;;;;;;;5096882;28;20497;-71
2022/02/05 01:14:15;;;;;;;6.70;1.80;;;;;;;;;;5097879;28;20764;-72
2022/02/05 01:16:54;;;;;;;8.57;2.33;;;;;;;;;;5097235;28;20475;-71
2022/02/05 01:22:07;;;;;;;4.97;1.50;;;;;;;;;;5112288;27;20434;-72
2022/02/05 01:24:36;;;;;;;4.70;2.50;;;;;;;;;;5117961;28;20446;-71
2022/02/05 01:27:08;;;;;;;3.53;1.77;;;;;;;;;;5103738;28;20479;-71
2022/02/05 01:29:49;;;;;;;3.10;1.67;;;;;;;;;;5096423;28;20454;-71
2022/02/05 01:32:26;;;;;;;3.60;1.93;;;;;;;;;;5096843;28;20455;-71
2022/02/05 01:35:03;;;;;;;5.00;1.97;;;;;;;;;;5097030;28;20452;-71
2022/02/05 01:49:11;;;;;;;2.33;1.20;;;;;;;;;;5116632;28;20777;-71
2022/02/05 01:52:05;;;;;;;2.63;2.30;;;;;;;;;;5117114;28;20945;-71
2022/02/05 01:55:15;;;;;;;7.80;2.37;;;;;;;;;;5115517;28;20457;-72
2022/02/05 01:57:54;;;;;;;6.13;2.60;;;;;;;;;;5116854;28;20515;-71
2022/02/05 02:06:10;;;;;;;2.10;1.27;;;;;;;;;;5104090;28;20879;-71
2022/02/05 02:11:34;;;;;;;3.73;1.97;;;;;;;;;;5096091;28;20700;-71
2022/02/05 02:19:36;;;;;;;6.80;2.07;;;;;;;;;;5094912;28;20478;-71
2022/02/05 02:22:12;;;;;;;5.00;2.00;;;;;;;;;;5116967;28;20466;-71
2022/02/05 02:24:54;;;;;;;8.00;2.50;;;;;;;;;;5137270;28;20454;-71
2022/02/05 02:27:43;;;;;;;2.47;1.80;;;;;;;;;;5137495;27;21000;-71
2022/02/05 02:30:19;;;;;;;5.77;2.27;;;;;;;;;;5134072;28;20453;-71
2022/02/05 02:33:06;;;;;;;8.77;2.80;;;;;;;;;;5114502;28;20751;-71
2022/02/05 02:35:42;;;;;;;6.67;2.33;;;;;;;;;;5116027;28;20837;-72
2022/02/05 02:38:23;;;;;;;6.07;2.37;;;;;;;;;;5115930;28;20882;-72
2022/02/05 02:43:35;;;;;;;5.67;2.60;;;;;;;;;;5114015;28;20419;-70
2022/02/05 02:46:06;;;;;;;8.07;2.70;;;;;;;;;;5116613;28;21037;-71
2022/02/05 02:48:34;;;;;;;2.93;1.93;;;;;;;;;;5113743;28;20447;-71
2022/02/05 03:02:09;;;;;;;5.20;2.13;;;;;;;;;;5116884;28;20435;-71
2022/02/05 03:04:38;;;;;;;8.10;3.23;;;;;;;;;;5120507;28;20488;-71
2022/02/05 03:07:09;;;;;;;7.10;2.50;;;;;;;;;;5120047;28;20622;-72
2022/02/05 03:09:42;;;;;;;5.30;2.90;;;;;;;;;;5119782;28;20438;-72
2022/02/05 03:12:10;;;;;;;5.73;3.00;;;;;;;;;;5100176;28;20462;-71
2022/02/05 03:14:39;;;;;;;3.63;1.70;;;;;;;;;;5100397;28;20880;-72
2022/02/05 03:17:16;;;;;;;4.47;1.90;;;;;;;;;;5099402;28;20508;-71
2022/02/05 03:19:46;;;;;;;10.77;2.90;;;;;;;;;;5099821;28;20482;-71
2022/02/05 03:22:14;;;;;;;7.43;3.00;;;;;;;;;;5099574;28;20451;-71
2022/02/05 03:24:44;;;;;;;5.53;2.33;;;;;;;;;;5100019;28;20843;-73
2022/02/05 03:27:12;;;;;;;4.90;2.27;;;;;;;;;;5099454;28;20554;-72
2022/02/05 03:29:42;;;;;;;4.90;2.40;;;;;;;;;;5099368;28;20716;-72
2022/02/05 03:32:10;;;;;;;6.27;2.13;;;;;;;;;;5099895;28;20452;-71
2022/02/05 03:34:41;;;;;;;7.80;2.90;;;;;;;;;;5099576;28;20546;-71
2022/02/05 03:37:08;;;;;;;6.40;2.37;;;;;;;;;;5099242;28;20586;-71
2022/02/05 03:39:37;;;;;;;7.73;2.60;;;;;;;;;;5099099;28;20488;-71
2022/02/05 03:42:06;;;;;;;2.33;1.30;;;;;;;;;;5098655;28;20483;-72
2022/02/05 03:44:34;;;;;;;3.93;1.47;;;;;;;;;;5099589;28;20443;-73
2022/02/05 03:47:02;;;;;;;2.37;1.10;;;;;;;;;;5099212;28;20812;-73
2022/02/05 03:49:29;;;;;;;2.57;0.90;;;;;;;;;;5098890;28;20483;-73
2022/02/05 03:52:00;;;;;;;1.07;0.50;;;;;;;;;;5098620;28;20805;-72
2022/02/05 03:54:30;;;;;;;3.33;0.73;;;;;;;;;;5099211;28;20694;-73
2022/02/05 03:56:58;;;;;;;1.60;0.60;;;;;;;;;;5098618;28;20451;-72
2022/02/05 03:59:27;;;;;;;2.60;0.80;;;;;;;;;;5098680;28;20849;-72
2022/02/05 04:01:55;;;;;;;2.63;0.90;;;;;;;;;;5098937;28;20517;-72
2022/02/05 04:04:25;;;;;;;2.53;0.80;;;;;;;;;;5098782;28;20536;-73
2022/02/05 04:06:53;;;;;;;1.40;0.60;;;;;;;;;;5099080;28;20487;-72
2022/02/05 04:09:25;;;;;;;1.30;0.60;;;;;;;;;;5098590;28;20447;-72
2022/02/05 04:15:55;;;;;;;1.33;0.57;;;;;;;;;;5098749;28;20440;-73
2022/02/05 04:17:32;;;;;;;1.60;0.60;;;;;;;;;;5098950;28;20446;-72
2022/02/05 04:20:00;;;;;;;2.30;0.50;;;;;;;;;;5098365;28;20896;-72
2022/02/05 04:22:29;;;;;;;1.97;0.50;;;;;;;;;;5097958;28;20451;-73
2022/02/05 04:24:57;;;;;;;1.67;0.60;;;;;;;;;;5100994;28;20511;-73
2022/02/05 04:27:24;;;;;;;1.10;0.60;;;;;;;;;;5098343;28;20460;-72
2022/02/05 04:29:56;;;;;;;1.30;0.70;;;;;;;;;;5098529;28;20947;-73
2022/02/05 04:32:24;;;;;;;2.40;0.70;;;;;;;;;;5097208;28;20460;-72
2022/02/05 04:34:52;;;;;;;5.53;2.07;;;;;;;;;;5098647;28;20528;-72
2022/02/05 04:37:22;;;;;;;3.90;1.30;;;;;;;;;;5098131;28;20944;-72
2022/02/05 04:40:01;;;;;;;2.10;0.70;;;;;;;;;;5097983;28;20490;-72
2022/02/05 04:42:40;;;;;;;2.27;0.70;;;;;;;;;;5098311;28;20486;-72
2022/02/05 04:45:33;;;;;;;1.40;0.63;;;;;;;;;;5097545;28;20846;-72
2022/02/05 04:51:11;;;;;;;5.10;1.23;;;;;;;;;;5071481;28;20431;-72
2022/02/05 04:53:54;;;;;;;2.63;0.90;;;;;;;;;;5097813;28;20751;-72
2022/02/05 04:56:32;;;;;;;4.97;0.90;;;;;;;;;;5097442;28;20467;-72
2022/02/05 05:02:30;;;;;;;1.20;0.70;;;;;;;;;;5055164;28;20472;-73
2022/02/05 05:05:04;;;;;;;1.80;1.07;;;;;;;;;;5097028;28;20502;-73
2022/02/05 05:07:55;;;;;;;1.97;0.83;;;;;;;;;;5096621;28;20485;-72
2022/02/05 05:10:30;;;;;;;6.70;1.80;;;;;;;;;;5097900;28;20452;-72
2022/02/05 05:13:03;;;;;;;4.60;1.20;;;;;;;;;;5097987;28;20843;-72
2022/02/05 05:19:13;;;;;;;5.00;1.93;;;;;;;;;;5097613;28;20456;-72
2022/02/05 05:21:16;;;;;;;4.93;2.20;;;;;;;;;;5096632;28;20641;-72
2022/02/05 05:23:44;;;;;;;3.63;1.23;;;;;;;;;;5096813;28;20527;-72
2022/02/05 05:26:11;;;;;;;6.33;2.70;;;;;;;;;;5097062;28;20522;-72
2022/02/05 05:28:39;;;;;;;3.87;1.10;;;;;;;;;;5098149;28;20451;-72
2022/02/05 05:31:07;;;;;;;4.17;1.80;;;;;;;;;;5097351;28;20455;-72
2022/02/05 05:33:36;;;;;;;4.30;1.30;;;;;;;;;;5096996;28;20539;-72
2022/02/05 05:36:04;;;;;;;5.40;2.10;;;;;;;;;;5096716;28;20444;-72
2022/02/05 05:38:32;;;;;;;3.10;1.10;;;;;;;;;;5096973;28;20856;-72
2022/02/05 05:40:59;;;;;;;2.50;1.37;;;;;;;;;;5096602;28;20487;-72
2022/02/05 05:43:38;;;;;;;2.90;1.00;;;;;;;;;;5097358;28;20500;-72
2022/02/05 05:46:24;;;;;;;5.20;1.50;;;;;;;;;;5097095;28;20870;-71
2022/02/05 05:48:59;;;;;;;3.10;0.90;;;;;;;;;;5096467;28;20448;-71
2022/02/05 05:51:26;;;;;;;3.93;1.43;;;;;;;;;;5096252;28;20542;-71
2022/02/05 05:53:54;;;;;;;3.57;1.20;;;;;;;;;;5096362;28;20530;-71
2022/02/05 05:56:23;;;;;;;1.80;0.87;;;;;;;;;;5096519;28;20831;-71
2022/02/05 05:58:51;;;;;;;2.10;0.83;;;;;;;;;;5095783;28;20459;-71
2022/02/05 06:01:19;;;;;;;1.80;0.80;;;;;;;;;;5095988;28;20899;-71
2022/02/05 06:03:47;;;;;;;1.27;0.60;;;;;;;;;;5096839;28;20455;-71
2022/02/05 06:06:16;;;;;;;1.97;0.70;;;;;;;;;;5097053;28;20530;-71
2022/02/05 06:08:44;;;;;;;2.20;0.60;;;;;;;;;;5095319;28;20468;-71
2022/02/05 06:11:11;;;;;;;1.30;0.50;;;;;;;;;;5095781;28;20490;-71
2022/02/05 06:13:39;;;;;;;1.83;0.60;;;;;;;;;;5096329;28;20452;-71
2022/02/05 06:16:11;;;;;;;1.83;0.50;;;;;;;;;;5096170;28;20867;-72
2022/02/05 06:18:38;;;;;;;1.87;0.60;;;;;;;;;;5096428;28;20787;-72
2022/02/05 06:21:06;;;;;;;1.00;0.50;;;;;;;;;;5095822;28;20494;-71
2022/02/05 06:23:39;;;;;;;1.23;0.60;;;;;;;;;;5096411;28;20536;-71
2022/02/05 06:26:06;;;;;;;3.00;0.90;;;;;;;;;;5096900;28;20825;-72
2022/02/05 06:28:34;;;;;;;1.20;0.60;;;;;;;;;;5098354;28;20868;-71
2022/02/05 06:31:02;;;;;;;1.27;0.60;;;;;;;;;;5131021;27;20449;-71
2022/02/05 06:33:30;;;;;;;2.20;0.77;;;;;;;;;;5141409;27;20537;-72
2022/02/05 06:35:58;;;;;;;5.17;0.97;;;;;;;;;;5141343;27;20460;-71
2022/02/05 06:38:26;;;;;;;3.57;0.80;;;;;;;;;;5141468;27;20537;-71
2022/02/05 06:40:55;;;;;;;2.30;0.90;;;;;;;;;;5141257;27;20499;-71
2022/02/05 06:43:23;;;;;;;5.27;1.20;;;;;;;;;;5140925;27;20533;-72
2022/02/05 06:45:51;;;;;;;4.20;1.00;;;;;;;;;;5141057;27;20544;-71
2022/02/05 06:48:19;;;;;;;1.93;0.67;;;;;;;;;;5140443;27;20492;-72
2022/02/05 06:50:46;;;;;;;3.00;0.80;;;;;;;;;;5140511;27;20461;-72
2022/02/05 06:53:14;;;;;;;5.97;1.37;;;;;;;;;;5141154;27;20549;-72
2022/02/05 06:55:42;;;;;;;1.80;0.60;;;;;;;;;;5140615;27;20907;-72
2022/02/05 06:58:11;;;;;;;3.23;1.07;;;;;;;;;;5140959;27;20509;-72
2022/02/05 07:00:39;;;;;;;3.03;0.90;;;;;;;;;;5140509;27;20521;-72
2022/02/05 07:03:16;;;;;;;3.30;0.90;;;;;;;;;;5129311;27;20768;-73
2022/02/05 07:05:48;;;;;;;2.63;1.23;;;;;;;;;;5115538;28;20454;-73
2022/02/05 07:08:21;;;;;;;6.00;1.00;;;;;;;;;;5107390;28;20740;-73
2022/02/05 07:10:50;;;;;;;5.60;1.53;;;;;;;;;;5098835;28;20876;-73
2022/02/05 07:13:21;;;;;;;3.90;1.10;;;;;;;;;;5100945;28;20451;-73
2022/02/05 07:15:56;;;;;;;5.27;2.10;;;;;;;;;;5119639;28;20458;-73
2022/02/05 07:18:31;;;;;;;3.37;1.00;;;;;;;;;;5119128;28;20502;-73
2022/02/05 07:21:03;;;;;;;3.67;1.43;;;;;;;;;;5119275;28;20992;-72
2022/02/05 07:23:55;;;;;;;4.03;1.20;;;;;;;;;;5119412;28;20762;-73
2022/02/05 07:29:15;;;;;;;3.53;1.23;;;;;;;;;;5119055;28;20436;-73
2022/02/05 07:31:44;;;;;;;2.90;0.90;;;;;;;;;;5119100;28;20738;-73
2022/02/05 07:34:13;;;;;;;6.13;1.40;;;;;;;;;;5119155;28;20611;-73
2022/02/05 07:36:42;;;;;;;5.43;1.23;;;;;;;;;;5119469;28;20458;-73
2022/02/05 07:39:27;;;;;;;5.70;1.47;;;;;;;;;;5119398;28;20466;-73
2022/02/05 07:41:55;;;;;;;6.37;1.50;;;;;;;;;;5119488;28;20597;-72
2022/02/05 07:44:24;;;;;;;2.90;1.37;;;;;;;;;;5132476;27;20979;-72
2022/02/05 07:46:58;;;;;;;10.13;1.27;;;;;;;;;;5116419;27;20516;-73
2022/02/05 07:49:29;;;;;;;3.73;1.10;;;;;;;;;;5118515;28;20523;-73
2022/02/05 07:51:57;;;;;;;3.33;1.27;;;;;;;;;;5118803;28;20439;-72
2022/02/05 07:54:24;;;;;;;4.43;1.07;;;;;;;;;;5119364;28;20460;-72
2022/02/05 07:56:52;;;;;;;6.90;2.00;;;;;;;;;;5118647;28;21033;-72
2022/02/05 07:59:20;;;;;;;5.47;1.23;;;;;;;;;;5104976;28;20539;-72
2022/02/05 08:02:14;;;;;;;5.00;0.90;;;;;;;;;;5107033;28;20467;-72
2022/02/05 08:04:43;;;;;;;7.93;1.97;;;;;;;;;;5118148;28;21067;-71
2022/02/05 08:07:10;;;;;;;8.30;1.43;;;;;;;;;;5117031;28;20454;-72
2022/02/05 08:09:54;;;;;;;4.03;2.60;;;;;;;;;;5117001;28;20463;-72
2022/02/05 08:12:23;;;;;;;5.00;1.00;;;;;;;;;;5119136;28;20443;-71
2022/02/05 08:14:52;;;;;;;12.40;2.00;;;;;;;;;;5119548;28;20496;-72
2022/02/05 08:17:24;;;;;;;3.30;1.50;;;;;;;;;;5118885;28;20451;-72
2022/02/05 08:19:53;;;;;;;3.07;1.43;;;;;;;;;;5118099;28;20459;-71
2022/02/05 08:22:24;;;;;;;11.13;1.97;;;;;;;;;;5118575;28;20483;-71
2022/02/05 08:24:51;;;;;;;10.00;3.70;;;;;;;;;;5117720;28;20692;-72
2022/02/05 08:27:19;;;;;;;12.00;2.53;;;;;;;;;;5116816;28;20454;-71
2022/02/05 08:29:54;;;;;;;5.70;1.80;;;;;;;;;;5101224;28;20798;-72
2022/02/05 08:32:25;;;;;;;9.70;2.70;;;;;;;;;;5136185;27;20441;-72
2022/02/05 08:34:53;;;;;;;11.60;2.93;;;;;;;;;;5138395;27;20456;-71
2022/02/05 08:37:22;;;;;;;10.40;2.93;;;;;;;;;;5130516;27;20458;-71
2022/02/05 08:39:49;;;;;;;7.53;2.57;;;;;;;;;;5108472;28;20482;-72
2022/02/05 08:42:17;;;;;;;10.83;3.20;;;;;;;;;;5096480;28;20515;-72
2022/02/05 08:44:45;;;;;;;9.40;3.90;;;;;;;;;;5096428;28;20475;-72
2022/02/05 08:47:12;;;;;;;5.97;2.77;;;;;;;;;;5100809;28;20880;-72
2022/02/05 08:49:41;;;;;;;8.50;3.63;;;;;;;;;;5102199;28;20487;-71
2022/02/05 08:52:11;;;;;;;6.93;2.50;;;;;;;;;;5096369;28;20440;-71
2022/02/05 08:54:43;;;;;;;14.90;3.90;;;;;;;;;;5096689;28;20464;-71
2022/02/05 08:57:15;;;;;;;17.63;5.97;;;;;;;;;;5096969;28;20447;-71
2022/02/05 08:59:56;;;;;;;5.90;2.70;;;;;;;;;;5099731;27;20455;-72
2022/02/05 09:02:38;;;;;;;16.00;5.20;;;;;;;;;;5096473;28;21014;-72
2022/02/05 09:05:13;;;;;;;6.40;2.63;;;;;;;;;;5114227;28;20542;-71
2022/02/05 09:07:42;;;;;;;10.57;3.13;;;;;;;;;;5097132;28;20505;-69
2022/02/05 09:10:24;;;;;;;10.07;3.80;;;;;;;;;;5101284;27;20864;-71
2022/02/05 09:15:48;;;;;;;7.77;1.80;;;;;;;;;;5033376;28;20429;-71
2022/02/05 09:18:16;;;;;;;10.47;3.10;;;;;;;;;;5091372;28;20517;-71
2022/02/05 09:20:47;;;;;;;11.73;3.13;;;;;;;;;;5095767;28;20455;-71
2022/02/05 09:23:16;;;;;;;9.00;1.73;;;;;;;;;;5098085;28;20521;-72
2022/02/05 09:25:44;;;;;;;9.07;3.20;;;;;;;;;;5116764;28;20561;-71
2022/02/05 09:28:15;;;;;;;7.67;3.53;;;;;;;;;;5115413;28;20595;-71
2022/02/05 09:31:01;;;;;;;13.50;3.07;;;;;;;;;;5111194;28;20886;-72
2022/02/05 09:33:29;;;;;;;11.00;2.30;;;;;;;;;;5109607;28;20486;-71
2022/02/05 09:35:58;;;;;;;9.47;2.53;;;;;;;;;;5115809;28;20452;-71
2022/02/05 09:38:37;;;;;;;12.53;3.20;;;;;;;;;;5115010;28;20455;-71
2022/02/05 09:41:05;;;;;;;6.10;2.60;;;;;;;;;;5129618;27;20533;-70
2022/02/05 09:43:33;;;;;;;12.20;3.57;;;;;;;;;;5115411;28;20483;-70
2022/02/05 09:46:02;;;;;;;5.80;3.20;;;;;;;;;;5114990;28;20859;-72
2022/02/05 09:48:32;;;;;;;10.93;3.10;;;;;;;;;;5114502;28;20535;-71
2022/02/05 09:51:13;;;;;;;10.23;2.17;;;;;;;;;;5097244;28;20467;-73
2022/02/05 09:53:49;;;;;;;7.50;2.50;;;;;;;;;;5094723;28;20502;-72
2022/02/05 09:56:18;;;;;;;6.60;2.20;;;;;;;;;;5094623;28;20840;-71
2022/02/05 09:58:46;;;;;;;9.23;2.80;;;;;;;;;;5094968;28;20520;-71
2022/02/05 10:01:17;;;;;;;10.43;3.10;;;;;;;;;;5095775;28;20491;-73
2022/02/05 10:03:47;;;;;;;6.07;2.63;;;;;;;;;;5105283;28;20455;-73
2022/02/05 10:06:18;;;;;;;7.70;2.50;;;;;;;;;;5109361;28;20463;-72
2022/02/05 10:08:47;;;;;;;11.27;2.43;;;;;;;;;;5112029;27;20462;-72
2022/02/05 10:11:18;;;;;;;6.00;2.60;;;;;;;;;;5114949;28;20525;-73
2022/02/05 10:13:45;;;;;;;8.90;3.27;;;;;;;;;;5111895;28;20485;-72
2022/02/05 10:16:14;;;;;;;10.10;2.10;;;;;;;;;;5104146;28;20458;-70
2022/02/05 10:18:46;;;;;;;8.17;2.47;;;;;;;;;;5094372;28;20546;-71
2022/02/05 10:21:26;;;;;;;12.77;3.03;;;;;;;;;;5095051;28;20451;-71
2022/02/05 10:23:57;;;;;;;6.13;2.70;;;;;;;;;;5097294;28;20461;-72
2022/02/05 10:26:35;;;;;;;6.50;2.70;;;;;;;;;;5101373;28;20478;-71
2022/02/05 10:29:11;;;;;;;8.23;2.60;;;;;;;;;;5111107;28;20478;-71
2022/02/05 10:31:55;;;;;;;7.03;1.80;;;;;;;;;;5108998;28;20543;-71
2022/02/05 10:34:24;;;;;;;5.80;2.20;;;;;;;;;;5103202;28;20465;-70
2022/02/05 10:37:11;;;;;;;13.60;1.93;;;;;;;;;;5103297;28;20532;-70
2022/02/05 10:40:05;;;;;;;6.60;2.30;;;;;;;;;;5102182;28;20466;-71
2022/02/05 10:45:21;;;;;;;15.23;1.30;;;;;;;;;;5112989;28;20846;-71
2022/02/05 10:47:53;;;;;;;12.13;3.13;;;;;;;;;;5094322;28;20772;-71
2022/02/05 10:50:23;;;;;;;6.90;2.13;;;;;;;;;;5107745;28;20451;-70
2022/02/05 10:53:03;;;;;;;12.90;3.00;;;;;;;;;;5113942;28;20682;-71
2022/02/05 10:55:53;;;;;;;17.70;3.80;;;;;;;;;;5114152;28;20454;-70
2022/02/05 10:58:35;;;;;;;6.80;1.70;;;;;;;;;;5099027;28;20559;-70
2022/02/05 11:07:05;;;;;;;7.87;2.10;;;;;;;;;;5093498;28;20874;-68
2022/02/05 11:09:35;;;;;;;11.33;2.40;;;;;;;;;;5095681;28;20459;-70
2022/02/05 11:15:03;;;;;;;10.80;3.90;;;;;;;;;;5106090;28;20449;-71
2022/02/05 11:20:15;;;;;;;10.20;2.20;;;;;;;;;;5071854;28;20431;-71
2022/02/05 11:22:56;;;;;;;6.30;2.30;;;;;;;;;;5102143;28;20508;-72
2022/02/05 11:25:32;;;;;;;5.93;2.77;;;;;;;;;;5113888;28;20463;-71
2022/02/05 11:28:10;;;;;;;50.53;42.83;;;;;;;;;;5115298;27;20470;-72
2022/02/05 11:30:45;;;;;;;7.80;2.40;;;;;;;;;;5113890;28;20504;-71
2022/02/05 11:33:28;;;;;;;6.20;1.70;;;;;;;;;;5117116;28;20427;-71
2022/02/05 11:39:00;;;;;;;9.53;2.13;;;;;;;;;;5098295;28;20462;-70
2022/02/05 11:41:31;;;;;;;19.80;18.00;;;;;;;;;;5115544;28;20435;-71
2022/02/05 11:44:18;;;;;;;10.03;2.67;;;;;;;;;;5115181;28;20545;-71
2022/02/05 11:47:07;;;;;;;12.03;3.20;;;;;;;;;;5116008;28;20542;-72
2022/02/05 11:49:49;;;;;;;8.17;4.13;;;;;;;;;;5116519;28;20508;-72
2022/02/05 11:52:37;;;;;;;7.10;2.47;;;;;;;;;;5117159;28;20500;-71
2022/02/05 11:55:10;;;;;;;14.87;5.40;;;;;;;;;;5102634;28;20456;-71
2022/02/05 11:58:02;;;;;;;4.53;1.87;;;;;;;;;;5101157;28;20454;-72
2022/02/05 12:00:49;;;;;;;9.47;2.67;;;;;;;;;;5115946;28;20721;-72
2022/02/05 12:03:33;;;;;;;5.27;2.50;;;;;;;;;;5115199;28;20491;-71
2022/02/05 12:06:14;;;;;;;2.20;0.97;;;;;;;;;;5109052;28;20876;-72
2022/02/05 12:08:48;;;;;;;6.60;1.67;;;;;;;;;;5120184;27;20438;-71
2022/02/05 12:11:42;;;;;;;10.90;2.00;;;;;;;;;;5137258;27;20547;-70
2022/02/05 12:14:18;;;;;;;5.97;1.87;;;;;;;;;;5097809;28;20458;-70
2022/02/05 12:17:15;;;;;;;13.50;3.17;;;;;;;;;;5112042;28;20596;-70
2022/02/05 12:20:09;;;;;;;11.83;2.57;;;;;;;;;;5106061;28;20541;-69
2022/02/05 12:22:56;;;;;;;6.90;1.60;;;;;;;;;;5105298;28;20475;-71
2022/02/05 12:25:27;;;;;;;12.03;4.53;;;;;;;;;;5104177;28;20888;-71
2022/02/05 12:27:55;;;;;;;12.27;3.10;;;;;;;;;;5101139;28;20443;-72
2022/02/05 12:30:37;;;;;;;17.83;4.50;;;;;;;;;;5096609;28;20484;-71
2022/02/05 12:33:12;;;;;;;6.93;1.67;;;;;;;;;;5102178;28;20451;-72
2022/02/05 12:36:01;;;;;;;8.77;2.90;;;;;;;;;;5102619;28;20470;-71
2022/02/05 12:38:42;;;;;;;12.33;5.20;;;;;;;;;;5108381;28;20712;-72
2022/02/05 12:41:12;;;;;;;10.87;1.77;;;;;;;;;;5130584;27;20505;-72
2022/02/05 12:43:57;;;;;;;11.40;2.30;;;;;;;;;;5105056;28;20479;-72
2022/02/05 12:46:55;;;;;;;6.03;1.60;;;;;;;;;;5104441;27;20509;-72
2022/02/05 12:49:40;;;;;;;6.60;2.37;;;;;;;;;;5095798;28;20537;-72
2022/02/05 12:52:10;;;;;;;6.37;1.93;;;;;;;;;;5109126;28;20558;-72
2022/02/05 12:57:31;;;;;;;4.83;1.80;;;;;;;;;;5093039;28;20467;-72
2022/02/05 13:00:08;;;;;;;8.63;2.13;;;;;;;;;;5117150;27;20455;-72
2022/02/05 13:02:37;;;;;;;11.93;3.20;;;;;;;;;;5103840;28;20510;-72
2022/02/05 13:05:07;;;;;;;10.20;2.97;;;;;;;;;;5096677;28;20460;-71
2022/02/05 13:07:41;;;;;;;8.70;2.10;;;;;;;;;;5109985;28;20524;-72
2022/02/05 13:10:10;;;;;;;9.33;2.30;;;;;;;;;;5125860;27;20862;-72
2022/02/05 13:12:41;;;;;;;7.93;2.33;;;;;;;;;;5104327;28;20447;-71
2022/02/05 13:15:22;;;;;;;18.17;2.93;;;;;;;;;;5112388;28;20459;-71
2022/02/05 13:18:07;;;;;;;10.60;3.10;;;;;;;;;;5102422;27;20462;-71
2022/02/05 13:26:41;;;;;;;7.93;1.70;;;;;;;;;;5093594;28;20869;-72
2022/02/05 13:29:39;;;;;;;14.30;2.70;;;;;;;;;;5104044;28;20482;-71
2022/02/05 13:35:13;;;;;;;;;;;;;;;;;;;;;
2022/02/05 13:37:56;;;;;;;11.83;3.80;;;;;;;;;;5106342;27;20468;-73
2022/02/05 13:40:31;;;;;;;1.80;1.03;;;;;;;;;;5093619;28;20498;-73
2022/02/05 13:43:13;;;;;;;5.10;1.53;;;;;;;;;;5099699;28;20547;-71
2022/02/05 13:45:52;;;;;;;8.03;2.10;;;;;;;;;;5100713;28;20755;-72
2022/02/05 13:48:27;;;;;;;5.07;2.30;;;;;;;;;;5094241;28;20466;-72
2022/02/05 13:51:04;;;;;;;11.30;1.97;;;;;;;;;;5094391;28;20873;-72
2022/02/05 13:53:32;;;;;;;4.70;2.10;;;;;;;;;;5110822;27;20470;-72
2022/02/05 13:56:10;;;;;;;2.37;1.40;;;;;;;;;;5109380;27;20443;-72
2022/02/05 13:58:38;;;;;;;4.57;2.33;;;;;;;;;;5106851;28;20497;-73
2022/02/05 14:01:07;;;;;;;6.47;1.67;;;;;;;;;;5103207;27;20846;-73
2022/02/05 14:03:36;;;;;;;3.30;1.47;;;;;;;;;;5124383;27;20486;-71
2022/02/05 14:06:06;;;;;;;13.60;4.40;;;;;;;;;;5126205;27;20491;-72
2022/02/05 14:08:39;;;;;;;13.00;3.97;;;;;;;;;;5116681;27;20775;-72
2022/02/05 14:11:12;;;;;;;8.60;3.10;;;;;;;;;;5117312;27;20504;-73
2022/02/05 14:13:42;;;;;;;6.70;2.30;;;;;;;;;;5123500;27;20541;-72
2022/02/05 14:16:13;;;;;;;8.37;2.50;;;;;;;;;;5096123;28;20444;-73
2022/02/05 14:21:45;;;;;;;7.90;2.70;;;;;;;;;;5118013;28;20726;-73
2022/02/05 14:24:18;;;;;;;8.60;2.87;;;;;;;;;;5122516;28;20563;-72
2022/02/05 14:27:01;;;;;;;8.67;4.77;;;;;;;;;;5116738;27;20474;-73
2022/02/05 14:29:36;;;;;;;10.33;2.43;;;;;;;;;;5127810;28;20534;-73
2022/02/05 14:32:19;;;;;;;8.27;3.30;;;;;;;;;;5117687;28;20840;-73
2022/02/05 14:35:08;;;;;;;3.40;1.63;;;;;;;;;;5129530;27;20495;-73
2022/02/05 14:40:25;;;;;;;5.83;1.70;;;;;;;;;;5108768;28;20673;-73
2022/02/05 14:43:00;;;;;;;9.03;3.00;;;;;;;;;;5110896;28;20466;-73
2022/02/05 14:45:54;;;;;;;5.70;1.63;;;;;;;;;;5120827;28;20442;-73
2022/02/05 14:48:39;;;;;;;8.77;1.90;;;;;;;;;;5116634;27;20435;-72
2022/02/05 14:51:10;;;;;;;10.00;3.43;;;;;;;;;;5117715;28;20596;-73
2022/02/05 14:53:38;;;;;;;11.30;2.60;;;;;;;;;;5108691;27;21066;-74
2022/02/05 14:56:12;;;;;;;7.63;2.40;;;;;;;;;;5110520;27;20435;-73
2022/02/05 14:58:41;;;;;;;8.20;2.33;;;;;;;;;;5105291;27;20465;-73
2022/02/05 15:01:11;;;;;;;5.43;1.33;;;;;;;;;;5107677;28;20785;-73
2022/02/05 15:03:45;;;;;;;3.20;1.53;;;;;;;;;;5104494;27;20455;-73
2022/02/05 15:06:18;;;;;;;3.30;1.77;;;;;;;;;;5110921;27;20437;-73
2022/02/05 15:08:46;;;;;;;6.10;2.30;;;;;;;;;;5118192;27;20546;-73
2022/02/05 15:11:17;;;;;;;6.40;1.77;;;;;;;;;;5111531;27;20865;-74
2022/02/05 15:14:08;;;;;;;4.13;1.50;;;;;;;;;;5097719;28;20886;-72
2022/02/05 15:16:45;;;;;;;7.10;2.20;;;;;;;;;;5096503;28;20452;-76
2022/02/05 15:34:06;;;;;;;7.67;2.23;;;;;;;;;;5040960;28;20481;-71
2022/02/05 15:36:45;;;;;;;10.23;2.80;;;;;;;;;;5104055;27;20454;-71
2022/02/05 15:46:07;;;;;;;3.10;1.63;;;;;;;;;;5069778;28;20463;-72
2022/02/05 15:48:37;;;;;;;10.23;3.73;;;;;;;;;;5078008;28;20475;-72
2022/02/05 15:51:19;;;;;;;14.30;6.47;;;;;;;;;;5081313;28;20443;-72
2022/02/05 15:53:52;;;;;;;16.27;4.20;;;;;;;;;;5098417;28;20933;-72
2022/02/05 15:56:43;;;;;;;12.03;3.07;;;;;;;;;;5103882;27;20440;-73
2022/02/05 15:59:23;;;;;;;6.93;1.80;;;;;;;;;;5104797;28;20455;-72
2022/02/05 16:02:07;;;;;;;2.60;1.40;;;;;;;;;;5096821;28;20476;-74
2022/02/05 16:04:35;;;;;;;8.27;2.00;;;;;;;;;;5094700;28;20496;-72
2022/02/05 16:07:14;;;;;;;6.63;2.83;;;;;;;;;;5090547;28;20456;-72
2022/02/05 16:10:09;;;;;;;7.33;2.20;;;;;;;;;;5081598;28;21030;-73
2022/02/05 16:12:44;;;;;;;5.80;2.40;;;;;;;;;;5077586;28;20915;-73
2022/02/05 16:15:15;;;;;;;8.53;2.80;;;;;;;;;;5079333;28;20464;-73
2022/02/05 16:17:43;;;;;;;6.10;2.33;;;;;;;;;;5077980;28;20464;-73
2022/02/05 16:23:04;;;;;;;7.03;3.30;;;;;;;;;;5089000;28;20734;-72
2022/02/05 16:28:46;;;;;;;8.60;2.27;;;;;;;;;;5080476;28;20471;-73
2022/02/05 16:31:16;;;;;;;4.63;2.37;;;;;;;;;;5095513;28;20806;-73
2022/02/05 16:33:45;;;;;;;8.10;1.97;;;;;;;;;;5080921;28;20539;-73
2022/02/05 16:36:26;;;;;;;7.37;2.33;;;;;;;;;;5084590;28;20552;-73
2022/02/05 16:38:57;;;;;;;11.67;2.40;;;;;;;;;;5095697;28;20550;-72
2022/02/05 16:41:27;;;;;;;3.67;1.60;;;;;;;;;;5097495;28;20443;-73
2022/02/05 16:43:55;;;;;;;4.13;2.37;;;;;;;;;;5083227;28;20868;-73
2022/02/05 16:46:26;;;;;;;7.53;3.13;;;;;;;;;;5089773;28;20467;-73
2022/02/05 16:49:27;;;;;;;4.43;1.37;;;;;;;;;;5096585;28;20451;-73
2022/02/05 16:52:17;;;;;;;11.33;2.80;;;;;;;;;;5098898;28;20471;-73
2022/02/05 16:54:59;;;;;;;5.30;1.77;;;;;;;;;;5101353;28;20483;-73
2022/02/05 16:57:29;;;;;;;4.30;1.50;;;;;;;;;;5090597;28;20444;-73
2022/02/05 17:00:04;;;;;;;5.20;1.83;;;;;;;;;;5096187;28;20910;-72
2022/02/05 17:02:33;;;;;;;5.50;1.40;;;;;;;;;;5096187;28;20448;-71
2022/02/05 17:05:07;;;;;;;5.10;1.90;;;;;;;;;;5091681;28;20476;-73
2022/02/05 17:07:36;;;;;;;10.93;2.60;;;;;;;;;;5091650;28;20464;-72
2022/02/05 17:10:10;;;;;;;10.93;4.53;;;;;;;;;;5093583;28;20449;-73
2022/02/05 17:12:38;;;;;;;6.00;1.77;;;;;;;;;;5079242;28;20495;-72
2022/02/05 17:15:07;;;;;;;14.77;4.80;;;;;;;;;;5087790;28;20925;-72
2022/02/05 17:17:43;;;;;;;8.90;2.60;;;;;;;;;;5097419;28;20440;-74
2022/02/05 17:20:14;;;;;;;5.40;2.30;;;;;;;;;;5096963;28;20485;-72
2022/02/05 17:22:50;;;;;;;4.17;1.53;;;;;;;;;;5097284;28;20986;-74
2022/02/05 17:25:21;;;;;;;9.00;3.10;;;;;;;;;;5097031;28;20491;-73
2022/02/05 17:27:49;;;;;;;5.80;1.93;;;;;;;;;;5096243;28;20705;-73
2022/02/05 17:30:18;;;;;;;8.17;4.03;;;;;;;;;;5084618;28;20515;-73
2022/02/05 17:32:47;;;;;;;2.87;1.53;;;;;;;;;;5078321;28;20507;-73
2022/02/05 17:35:20;;;;;;;7.00;3.33;;;;;;;;;;5100109;28;20767;-72
2022/02/05 17:37:47;;;;;;;8.60;3.13;;;;;;;;;;5080321;28;20495;-72
2022/02/05 17:40:19;;;;;;;11.07;3.00;;;;;;;;;;5086673;28;20459;-73
2022/02/05 17:42:55;;;;;;;6.87;2.87;;;;;;;;;;5092482;28;20490;-74
2022/02/05 17:45:27;;;;;;;17.60;3.47;;;;;;;;;;5095273;28;20479;-73
2022/02/05 17:48:04;;;;;;;4.50;1.87;;;;;;;;;;5065877;28;20464;-72